createdAt,value
2024-05-09T00:00:41.384Z,16.99
2024-05-09T00:03:10.647Z,16.99
2024-05-09T00:05:40.936Z,17.03
2024-05-09T00:08:09.499Z,17.07
2024-05-09T00:10:38.856Z,17.11
2024-05-09T00:13:07.686Z,17.14
2024-05-09T00:15:35.755Z,17.10
2024-05-09T00:18:04.378Z,17.09
2024-05-09T00:20:38.049Z,17.13
2024-05-09T00:23:09.327Z,17.18
2024-05-09T00:25:38.015Z,17.21
2024-05-09T00:28:05.751Z,17.21
2024-05-09T00:30:35.503Z,17.15
2024-05-09T00:33:08.737Z,17.17
2024-05-09T00:35:37.689Z,17.21
2024-05-09T00:38:05.305Z,17.24
2024-05-09T00:40:43.566Z,17.27
2024-05-09T00:43:12.207Z,17.27
2024-05-09T00:45:40.336Z,17.29
2024-05-09T00:48:09.578Z,17.30
2024-05-09T00:50:40.641Z,17.32
2024-05-09T00:53:10.941Z,17.31
2024-05-09T00:55:39.261Z,17.30
2024-05-09T00:58:08.050Z,17.25
2024-05-09T01:00:39.427Z,17.24
2024-05-09T01:03:10.323Z,17.19
2024-05-09T01:05:39.831Z,17.13
2024-05-09T01:08:07.894Z,17.16
2024-05-09T01:10:36.394Z,17.20
2024-05-09T01:13:05.195Z,17.25
2024-05-09T01:15:33.101Z,17.27
2024-05-09T01:18:11.939Z,17.30
2024-05-09T01:20:43.384Z,17.34
2024-05-09T01:23:14.412Z,17.31
2024-05-09T01:25:43.506Z,17.30
2024-05-09T01:28:10.750Z,17.26
2024-05-09T01:30:38.556Z,17.21
2024-05-09T01:33:08.806Z,17.20
2024-05-09T01:35:38.056Z,17.16
2024-05-09T01:38:05.392Z,17.12
2024-05-09T01:40:38.033Z,17.13
2024-05-09T01:43:08.736Z,17.15
2024-05-09T01:45:36.773Z,17.16
2024-05-09T01:48:04.751Z,17.13
2024-05-09T01:50:38.531Z,17.09
2024-05-09T01:53:13.609Z,17.09
2024-05-09T01:55:41.506Z,17.06
2024-05-09T01:58:09.587Z,17.01
2024-05-09T02:00:40.838Z,16.93
2024-05-09T02:03:13.930Z,16.87
2024-05-09T02:05:44.581Z,16.74
2024-05-09T02:08:20.671Z,16.73
2024-05-09T02:10:49.328Z,16.69
2024-05-09T02:13:17.068Z,16.54
2024-05-09T02:15:44.755Z,16.46
2024-05-09T02:18:12.886Z,16.39
2024-05-09T02:20:44.184Z,16.37
2024-05-09T02:23:12.242Z,16.35
2024-05-09T02:25:40.104Z,16.39
2024-05-09T02:28:07.192Z,16.40
2024-05-09T02:30:39.926Z,16.37
2024-05-09T02:33:11.707Z,16.41
2024-05-09T02:35:40.924Z,16.46
2024-05-09T02:38:09.746Z,16.44
2024-05-09T02:40:39.065Z,16.44
2024-05-09T02:43:08.861Z,16.41
2024-05-09T02:45:37.297Z,16.51
2024-05-09T02:48:05.110Z,16.46
2024-05-09T02:50:37.938Z,16.48
2024-05-09T02:53:13.140Z,16.50
2024-05-09T02:55:41.504Z,16.39
2024-05-09T02:58:08.803Z,16.37
2024-05-09T03:00:40.220Z,16.38
2024-05-09T03:03:11.580Z,16.34
2024-05-09T03:05:41.134Z,16.35
2024-05-09T03:08:08.427Z,16.26
2024-05-09T03:10:37.877Z,16.24
2024-05-09T03:13:15.820Z,16.29
2024-05-09T03:15:44.088Z,16.29
2024-05-09T03:18:11.961Z,16.32
2024-05-09T03:20:40.162Z,16.29
2024-05-09T03:23:09.338Z,16.20
2024-05-09T03:25:37.892Z,16.19
2024-05-09T03:28:05.577Z,16.19
2024-05-09T03:30:40.044Z,16.25
2024-05-09T03:33:11.480Z,16.30
2024-05-09T03:35:39.095Z,16.32
2024-05-09T03:38:06.205Z,16.36
2024-05-09T03:40:33.269Z,16.33
2024-05-09T03:43:00.343Z,16.28
2024-05-09T03:45:27.430Z,16.20
2024-05-09T03:47:54.787Z,16.14
2024-05-09T03:50:29.956Z,16.09
2024-05-09T03:53:02.067Z,16.04
2024-05-09T03:55:29.348Z,15.99
2024-05-09T03:57:56.597Z,15.94
2024-05-09T04:00:31.161Z,15.91
2024-05-09T04:03:07.010Z,15.92
2024-05-09T04:05:36.895Z,15.90
2024-05-09T04:08:05.705Z,15.94
2024-05-09T04:10:34.603Z,15.97
2024-05-09T04:13:03.460Z,15.98
2024-05-09T04:15:31.196Z,16.01
2024-05-09T04:17:58.472Z,16.02
2024-05-09T04:20:36.017Z,16.03
2024-05-09T04:23:07.883Z,16.05
2024-05-09T04:25:37.488Z,16.07
2024-05-09T04:28:05.444Z,16.15
2024-05-09T04:30:38.169Z,16.18
2024-05-09T04:33:10.743Z,16.24
2024-05-09T04:35:39.887Z,16.31
2024-05-09T04:38:07.089Z,16.38
2024-05-09T04:40:36.712Z,16.47
2024-05-09T04:43:15.323Z,16.52
2024-05-09T04:45:43.287Z,16.59
2024-05-09T04:48:11.046Z,16.60
2024-05-09T04:50:39.637Z,16.59
2024-05-09T04:53:11.203Z,16.59
2024-05-09T04:55:39.915Z,16.62
2024-05-09T04:58:09.482Z,16.69
2024-05-09T05:00:39.064Z,16.73
2024-05-09T05:03:10.626Z,16.74
2024-05-09T05:05:41.333Z,16.77
2024-05-09T05:08:17.713Z,16.77
2024-05-09T05:10:47.181Z,16.82
2024-05-09T05:13:24.119Z,16.88
2024-05-09T05:15:58.760Z,16.90
2024-05-09T05:18:27.396Z,16.80
2024-05-09T05:20:58.740Z,16.77
2024-05-09T05:23:25.924Z,16.67
2024-05-09T05:25:54.758Z,16.69
2024-05-09T05:28:22.429Z,16.78
2024-05-09T05:30:50.008Z,16.82
2024-05-09T05:33:22.533Z,16.77
2024-05-09T05:35:50.151Z,16.82
2024-05-09T05:38:17.632Z,16.89
2024-05-09T05:40:45.195Z,16.73
2024-05-09T05:43:18.045Z,16.74
2024-05-09T05:45:51.414Z,16.70
2024-05-09T05:48:19.166Z,16.76
2024-05-09T05:50:46.621Z,16.82
2024-05-09T05:53:14.114Z,16.88
2024-05-09T05:55:41.371Z,16.96
2024-05-09T05:58:12.134Z,17.06
2024-05-09T06:00:41.938Z,17.17
2024-05-09T06:03:10.835Z,17.15
2024-05-09T06:05:44.189Z,17.22
2024-05-09T06:08:12.120Z,17.22
2024-05-09T06:10:40.996Z,17.23
2024-05-09T06:13:13.483Z,17.31
2024-05-09T06:15:41.924Z,17.36
2024-05-09T06:18:11.097Z,17.32
2024-05-09T06:20:43.796Z,17.39
2024-05-09T06:23:12.723Z,17.45
2024-05-09T06:25:40.860Z,17.41
2024-05-09T06:28:07.892Z,17.54
2024-05-09T06:30:40.627Z,17.69
2024-05-09T06:33:12.148Z,17.84
2024-05-09T06:35:41.540Z,17.97
2024-05-09T06:38:09.519Z,17.93
2024-05-09T06:40:41.011Z,18.01
2024-05-09T06:43:18.925Z,18.12
2024-05-09T06:45:48.342Z,18.23
2024-05-09T06:48:19.497Z,18.29
2024-05-09T06:50:47.701Z,18.35
2024-05-09T06:53:15.791Z,18.31
2024-05-09T06:55:43.343Z,18.37
2024-05-09T06:58:10.430Z,18.47
2024-05-09T07:00:40.536Z,18.53
2024-05-09T07:03:11.435Z,18.59
2024-05-09T07:05:40.216Z,18.58
2024-05-09T07:08:07.995Z,18.52
2024-05-09T07:10:36.633Z,18.38
2024-05-09T07:13:12.205Z,18.32
2024-05-09T07:15:40.105Z,18.39
2024-05-09T07:18:20.479Z,18.27
2024-05-09T07:20:49.407Z,18.30
2024-05-09T07:23:18.345Z,18.35
2024-05-09T07:25:46.037Z,18.21
2024-05-09T07:28:18.556Z,18.14
2024-05-09T07:30:46.545Z,18.21
2024-05-09T07:33:22.394Z,18.34
2024-05-09T07:35:50.996Z,18.29
2024-05-09T07:38:18.446Z,18.41
2024-05-09T07:40:45.701Z,18.39
2024-05-09T07:43:16.434Z,18.39
2024-05-09T07:45:51.439Z,18.47
2024-05-09T07:52:37.976Z,18.55
2024-05-09T07:53:47.752Z,18.63
2024-05-09T07:56:19.894Z,18.69
2024-05-09T07:58:50.456Z,18.67
2024-05-09T08:01:17.922Z,18.66
2024-05-09T08:03:45.560Z,18.72
2024-05-09T08:06:12.915Z,18.59
2024-05-09T08:08:40.108Z,18.50
2024-05-09T08:11:07.306Z,18.56
2024-05-09T08:13:34.480Z,18.57
2024-05-09T08:16:02.062Z,18.60
2024-05-09T08:18:30.739Z,18.59
2024-05-09T08:20:58.525Z,18.63
2024-05-09T08:23:25.680Z,18.68
2024-05-09T08:25:55.454Z,18.61
2024-05-09T08:28:23.265Z,18.54
2024-05-09T08:30:50.739Z,18.54
2024-05-09T08:33:18.230Z,18.51
2024-05-09T08:35:45.639Z,18.46
2024-05-09T08:38:12.822Z,18.43
2024-05-09T08:40:41.477Z,18.32
2024-05-09T08:43:11.681Z,18.15
2024-05-09T08:45:44.096Z,18.00
2024-05-09T08:48:15.190Z,17.81
2024-05-09T08:50:43.735Z,17.63
2024-05-09T08:53:11.670Z,17.54
2024-05-09T08:55:41.811Z,17.48
2024-05-09T08:58:18.479Z,17.42
2024-05-09T09:00:46.827Z,17.38
2024-05-09T09:03:25.216Z,17.39
2024-05-09T09:06:11.143Z,17.45
2024-05-09T09:08:39.581Z,17.48
2024-05-09T09:11:07.126Z,17.46
2024-05-09T09:13:34.305Z,17.39
2024-05-09T09:16:03.147Z,17.36
2024-05-09T09:18:30.932Z,17.38
2024-05-09T09:20:58.501Z,17.43
2024-05-09T09:23:30.639Z,17.50
2024-05-09T09:26:01.079Z,17.53
2024-05-09T09:28:28.703Z,17.59
2024-05-09T09:31:02.443Z,17.72
2024-05-09T09:33:33.119Z,17.73
2024-05-09T09:36:02.818Z,17.78
2024-05-09T09:38:31.718Z,17.84
2024-05-09T09:41:01.666Z,17.85
2024-05-09T09:43:30.167Z,17.81
2024-05-09T09:46:00.226Z,17.88
2024-05-09T09:48:30.863Z,17.87
2024-05-09T09:50:58.719Z,17.83
2024-05-09T09:53:26.825Z,17.74
2024-05-09T09:55:55.171Z,17.70
2024-05-09T09:58:23.228Z,17.71
2024-05-09T10:00:50.437Z,17.76
2024-05-09T10:03:17.876Z,17.85
2024-05-09T10:05:47.148Z,17.86
2024-05-09T10:08:16.253Z,17.86
2024-05-09T10:10:47.961Z,17.79
2024-05-09T10:13:15.820Z,17.78
2024-05-09T10:15:53.753Z,17.86
2024-05-09T10:18:28.435Z,17.90
2024-05-09T10:20:57.788Z,17.98
2024-05-09T10:23:32.776Z,18.12
2024-05-09T10:26:05.704Z,18.32
2024-05-09T10:28:36.094Z,18.47
2024-05-09T10:31:14.049Z,18.69
2024-05-09T10:33:53.108Z,18.86
2024-05-09T10:36:29.680Z,18.99
2024-05-09T10:38:56.772Z,18.95
2024-05-09T10:41:24.185Z,18.90
2024-05-09T10:43:52.089Z,18.93
2024-05-09T10:46:19.801Z,19.02
2024-05-09T10:48:49.615Z,19.20
2024-05-09T10:51:18.833Z,19.32
2024-05-09T10:53:47.244Z,19.33
2024-05-09T10:56:14.869Z,19.35
2024-05-09T10:58:42.167Z,19.40
2024-05-09T11:01:10.627Z,19.48
2024-05-09T11:03:39.258Z,19.51
2024-05-09T11:06:07.525Z,19.73
2024-05-09T11:08:36.150Z,19.90
2024-05-09T11:11:08.147Z,20.04
2024-05-09T11:13:37.259Z,19.99
2024-05-09T11:16:06.439Z,20.00
2024-05-09T11:18:37.924Z,20.13
2024-05-09T11:21:13.362Z,20.29
2024-05-09T11:23:41.447Z,20.22
2024-05-09T11:26:11.058Z,20.22
2024-05-09T11:28:38.408Z,20.27
2024-05-09T11:31:10.289Z,20.41
2024-05-09T11:33:39.696Z,20.30
2024-05-09T11:36:08.208Z,20.39
2024-05-09T11:38:35.684Z,20.49
2024-05-09T11:41:03.967Z,20.69
2024-05-09T11:43:31.198Z,20.86
2024-05-09T11:45:58.609Z,20.93
2024-05-09T11:48:26.476Z,21.17
2024-05-09T11:50:55.229Z,21.27
2024-05-09T11:53:22.511Z,21.38
2024-05-09T11:55:49.669Z,21.43
2024-05-09T11:58:18.365Z,21.52
2024-05-09T12:00:47.330Z,21.79
2024-05-09T12:03:15.106Z,22.08
2024-05-09T12:05:42.810Z,22.16
2024-05-09T12:08:10.335Z,22.35
2024-05-09T12:10:38.321Z,22.54
2024-05-09T12:13:07.039Z,22.58
2024-05-09T12:15:38.920Z,22.44
2024-05-09T12:18:08.214Z,22.55
2024-05-09T12:20:38.849Z,22.76
2024-05-09T12:23:09.888Z,22.49
2024-05-09T12:25:39.835Z,22.42
2024-05-09T12:28:08.339Z,22.38
2024-05-09T12:30:40.175Z,22.28
2024-05-09T12:33:12.934Z,22.14
2024-05-09T12:35:44.049Z,22.00
2024-05-09T12:38:13.379Z,21.85
2024-05-09T12:40:43.604Z,21.74
2024-05-09T12:43:11.755Z,21.56
2024-05-09T12:45:39.937Z,21.59
2024-05-09T12:48:12.532Z,21.53
2024-05-09T12:50:44.372Z,21.44
2024-05-09T12:53:11.730Z,21.43
2024-05-09T12:55:45.172Z,21.30
2024-05-09T12:58:22.509Z,21.11
2024-05-09T13:00:51.700Z,20.81
2024-05-09T13:03:19.568Z,20.55
2024-05-09T13:05:47.284Z,20.46
2024-05-09T13:08:14.578Z,20.46
2024-05-09T13:10:42.621Z,20.48
2024-05-09T13:13:11.065Z,20.47
2024-05-09T13:15:38.810Z,20.37
2024-05-09T13:18:07.012Z,20.27
2024-05-09T13:20:36.761Z,20.22
2024-05-09T13:23:05.929Z,20.19
2024-05-09T13:25:37.096Z,20.26
2024-05-09T13:28:04.923Z,19.89
2024-05-09T13:30:39.991Z,19.60
2024-05-09T13:33:13.362Z,19.45
2024-05-09T13:35:48.713Z,19.33
2024-05-09T13:38:21.526Z,19.31
2024-05-09T13:40:49.226Z,19.18
2024-05-09T13:43:18.073Z,19.13
2024-05-09T13:45:45.694Z,19.07
2024-05-09T13:48:13.188Z,18.92
2024-05-09T13:50:40.706Z,18.95
2024-05-09T13:53:08.920Z,18.79
2024-05-09T13:55:39.130Z,18.70
2024-05-09T13:58:07.282Z,18.72
2024-05-09T14:03:05.165Z,18.64
2024-05-09T14:05:32.621Z,18.71
2024-05-09T14:08:00.017Z,18.56
2024-05-09T14:12:55.738Z,18.36
2024-05-09T14:15:22.891Z,18.34
2024-05-09T14:17:50.070Z,18.31
2024-05-09T14:20:28.005Z,18.30
2024-05-09T14:22:58.518Z,18.33
2024-05-09T14:25:28.585Z,18.24
2024-05-09T14:28:00.389Z,18.31
2024-05-09T14:30:34.844Z,17.96
2024-05-09T14:33:06.334Z,17.80
2024-05-09T14:35:34.435Z,17.72
2024-05-09T14:38:01.850Z,17.63
2024-05-09T14:40:39.085Z,17.52
2024-05-09T14:43:13.985Z,17.50
2024-05-09T14:45:42.239Z,17.47
2024-05-09T14:48:10.246Z,17.48
2024-05-09T14:50:40.087Z,17.32
2024-05-09T14:53:09.195Z,17.13
2024-05-09T14:55:38.075Z,16.91
2024-05-09T14:58:11.959Z,16.79
2024-05-09T15:00:46.339Z,16.80
2024-05-09T15:03:18.100Z,16.85
2024-05-09T15:05:45.709Z,16.92
2024-05-09T15:08:13.264Z,16.95
2024-05-09T15:10:40.803Z,16.96
2024-05-09T15:13:09.837Z,17.01
2024-05-09T15:15:38.607Z,16.95
2024-05-09T15:18:06.660Z,16.92
2024-05-09T15:20:36.685Z,16.83
2024-05-09T15:23:06.831Z,16.75
2024-05-09T15:25:35.826Z,16.60
2024-05-09T15:28:04.669Z,16.61
2024-05-09T15:30:33.742Z,16.67
2024-05-09T15:33:06.564Z,16.69
2024-05-09T15:35:34.655Z,16.52
2024-05-09T15:38:03.517Z,16.45
2024-05-09T15:40:38.403Z,16.37
2024-05-09T15:43:09.607Z,16.35
2024-05-09T15:45:38.831Z,16.31
2024-05-09T15:48:08.114Z,16.24
2024-05-09T15:50:39.520Z,16.18
2024-05-09T15:53:10.204Z,16.18
2024-05-09T15:55:38.181Z,16.17
2024-05-09T15:58:06.707Z,16.03
2024-05-09T16:00:38.941Z,15.98
2024-05-09T16:03:10.265Z,15.97
2024-05-09T16:05:38.197Z,15.80
2024-05-09T16:08:06.436Z,15.66
2024-05-09T16:10:34.959Z,15.64
2024-05-09T16:13:03.505Z,15.62
2024-05-09T16:15:31.947Z,15.51
2024-05-09T16:17:59.723Z,15.50
2024-05-09T16:20:35.087Z,15.47
2024-05-09T16:23:08.187Z,15.34
2024-05-09T16:25:35.845Z,15.32
2024-05-09T16:28:06.316Z,15.30
2024-05-09T16:30:36.661Z,15.23
2024-05-09T16:33:05.333Z,15.17
2024-05-09T16:35:33.038Z,15.15
2024-05-09T16:38:02.910Z,15.06
2024-05-09T16:40:37.724Z,15.06
2024-05-09T16:43:08.084Z,15.11
2024-05-09T16:45:35.973Z,15.16
2024-05-09T16:48:03.993Z,15.09
2024-05-09T16:50:34.500Z,15.03
2024-05-09T16:53:06.420Z,14.95
2024-05-09T16:55:34.387Z,14.86
2024-05-09T16:58:02.347Z,14.82
2024-05-09T17:00:39.341Z,14.79
2024-05-09T17:03:11.609Z,14.77
2024-05-09T17:05:39.791Z,14.81
2024-05-09T17:08:08.210Z,14.81
2024-05-09T17:10:36.615Z,14.81
2024-05-09T17:13:06.325Z,14.74
2024-05-09T17:15:35.782Z,14.69
2024-05-09T17:18:04.389Z,14.63
2024-05-09T17:20:35.174Z,14.65
2024-05-09T17:23:05.943Z,14.60
2024-05-09T17:25:34.842Z,14.53
2024-05-09T17:28:07.779Z,14.43
2024-05-09T17:30:38.392Z,14.26
2024-05-09T17:33:09.282Z,14.16
2024-05-09T17:35:37.668Z,14.17
2024-05-09T17:38:06.331Z,14.19
2024-05-09T17:40:36.438Z,14.18
2024-05-09T17:43:06.626Z,14.18
2024-05-09T17:45:36.941Z,14.21
2024-05-09T17:48:05.075Z,14.21
2024-05-09T17:50:35.932Z,14.17
2024-05-09T17:53:06.066Z,14.20
2024-05-09T17:55:33.605Z,14.22
2024-05-09T17:58:01.279Z,14.14
2024-05-09T18:00:36.858Z,14.04
2024-05-09T18:03:08.385Z,13.93
2024-05-09T18:05:37.034Z,13.92
2024-05-09T18:08:06.166Z,13.89
2024-05-09T18:10:37.359Z,13.91
2024-05-09T18:13:10.616Z,13.93
2024-05-09T18:15:38.815Z,13.92
2024-05-09T18:18:07.194Z,13.93
2024-05-09T18:20:42.160Z,13.95
2024-05-09T18:23:14.614Z,13.93
2024-05-09T18:25:43.025Z,13.89
2024-05-09T18:28:10.598Z,13.86
2024-05-09T18:30:38.155Z,13.85
2024-05-09T18:33:07.857Z,13.85
2024-05-09T18:35:36.642Z,13.79
2024-05-09T18:38:05.065Z,13.78
2024-05-09T18:40:36.066Z,13.85
2024-05-09T18:43:07.119Z,13.76
2024-05-09T18:45:37.084Z,13.69
2024-05-09T18:48:06.156Z,13.70
2024-05-09T18:50:37.673Z,13.74
2024-05-09T18:53:08.025Z,13.51
2024-05-09T18:55:35.501Z,13.36
2024-05-09T18:58:03.912Z,13.29
2024-05-09T19:00:35.900Z,13.17
2024-05-09T19:03:11.230Z,13.16
2024-05-09T19:05:41.250Z,13.16
2024-05-09T19:08:09.210Z,13.10
2024-05-09T19:10:38.936Z,13.05
2024-05-09T19:13:10.704Z,12.96
2024-05-09T19:15:40.950Z,12.88
2024-05-09T19:18:08.704Z,12.90
2024-05-09T19:20:36.927Z,12.86
2024-05-09T19:23:06.645Z,12.82
2024-05-09T19:25:35.026Z,12.74
2024-05-09T19:28:03.180Z,12.82
2024-05-09T19:30:38.428Z,12.79
2024-05-09T19:33:10.208Z,12.82
2024-05-09T19:35:38.458Z,12.82
2024-05-09T19:38:05.715Z,12.77
2024-05-09T19:40:34.564Z,12.78
2024-05-09T19:43:03.372Z,12.68
2024-05-09T19:45:33.638Z,12.65
2024-05-09T19:48:01.792Z,12.65
2024-05-09T19:50:37.189Z,12.66
2024-05-09T19:53:10.244Z,12.64
2024-05-09T19:55:37.923Z,12.53
2024-05-09T19:58:07.310Z,12.57
2024-05-09T20:00:41.387Z,12.55
2024-05-09T20:03:11.679Z,12.57
2024-05-09T20:05:39.651Z,12.59
2024-05-09T20:08:07.455Z,12.50
2024-05-09T20:10:36.056Z,12.40
2024-05-09T20:13:06.673Z,12.39
2024-05-09T20:15:35.707Z,12.33
2024-05-09T20:18:03.232Z,12.29
2024-05-09T20:20:37.460Z,12.32
2024-05-09T20:23:09.337Z,12.34
2024-05-09T20:25:36.700Z,12.43
2024-05-09T20:28:04.436Z,12.44
2024-05-09T20:30:34.395Z,12.53
2024-05-09T20:33:04.416Z,12.58
2024-05-09T20:35:33.048Z,12.60
2024-05-09T20:38:02.325Z,12.51
2024-05-09T20:40:34.435Z,12.44
2024-05-09T20:43:05.723Z,12.37
2024-05-09T20:45:33.681Z,12.35
2024-05-09T20:48:01.442Z,12.33
2024-05-09T20:50:36.876Z,12.29
2024-05-09T20:53:12.689Z,12.25
2024-05-09T20:55:41.062Z,12.27
2024-05-09T20:58:09.198Z,12.34
2024-05-09T21:00:40.545Z,12.36
2024-05-09T21:03:11.997Z,12.33
2024-05-09T21:05:39.882Z,12.36
2024-05-09T21:08:07.856Z,12.35
2024-05-09T21:10:36.896Z,12.37
2024-05-09T21:13:05.486Z,12.40
2024-05-09T21:15:33.625Z,12.41
2024-05-09T21:18:00.862Z,12.45
2024-05-09T21:20:31.753Z,12.51
2024-05-09T21:23:01.474Z,12.48
2024-05-09T21:25:29.461Z,12.49
2024-05-09T21:27:56.848Z,12.46
2024-05-09T21:32:54.336Z,12.44
2024-05-09T21:35:21.474Z,12.44
2024-05-09T21:37:48.723Z,12.49
2024-05-09T21:40:24.389Z,12.46
2024-05-09T21:42:58.591Z,12.46
2024-05-09T21:45:25.742Z,12.43
2024-05-09T21:47:53.027Z,12.39
2024-05-09T21:50:27.541Z,12.44
2024-05-09T21:52:59.248Z,12.36
2024-05-09T21:55:27.658Z,12.44
2024-05-09T21:57:56.842Z,12.35
2024-05-09T22:00:32.284Z,12.30
2024-05-09T22:03:04.138Z,12.27
2024-05-09T22:05:31.733Z,12.25
2024-05-09T22:07:59.783Z,12.33
2024-05-09T22:10:33.834Z,12.25
2024-05-09T22:13:09.322Z,12.22
2024-05-09T22:15:39.080Z,12.26
2024-05-09T22:18:08.628Z,12.29
2024-05-09T22:20:39.135Z,12.33
2024-05-09T22:23:08.214Z,12.37
2024-05-09T22:25:36.531Z,12.41
2024-05-09T22:28:04.233Z,12.44
2024-05-09T22:30:36.339Z,12.41
2024-05-09T22:33:11.791Z,12.42
2024-05-09T22:35:40.716Z,12.39
2024-05-09T22:38:08.503Z,12.37
2024-05-09T22:40:46.667Z,12.41
2024-05-09T22:43:21.600Z,12.43
2024-05-09T22:45:50.926Z,12.47
2024-05-09T22:48:18.505Z,12.46
2024-05-09T22:50:45.744Z,12.43
2024-05-09T22:53:12.855Z,12.46
2024-05-09T22:55:42.637Z,12.46
2024-05-09T22:58:12.737Z,12.51
2024-05-09T23:00:40.272Z,12.49
2024-05-09T23:03:08.025Z,12.45
2024-05-09T23:05:35.272Z,12.45
2024-05-09T23:08:04.166Z,12.44
2024-05-09T23:10:36.471Z,12.41
2024-05-09T23:13:08.897Z,12.43
2024-05-09T23:15:37.551Z,12.40
2024-05-09T23:18:05.356Z,12.42
2024-05-09T23:20:37.524Z,12.39
2024-05-09T23:23:08.010Z,12.40
2024-05-09T23:25:35.502Z,12.39
2024-05-09T23:28:03.166Z,12.43
2024-05-09T23:30:37.487Z,12.44
2024-05-09T23:33:08.500Z,12.50
2024-05-09T23:35:36.126Z,12.47
2024-05-09T23:38:03.821Z,12.39
2024-05-09T23:40:38.305Z,12.32
2024-05-09T23:43:12.450Z,12.31
2024-05-09T23:45:40.484Z,12.31
2024-05-09T23:48:08.334Z,12.30
2024-05-09T23:50:38.001Z,12.27
2024-05-09T23:53:08.215Z,12.19
2024-05-09T23:55:36.850Z,12.14
2024-05-09T23:58:04.319Z,12.17
